sensor_id;sensor_type;location;lat;lon;timestamp;temperature;humidity
25332;DHT22;13284;52.748;13.452;2023-09-19T00:01:41;18.00;99.90
25332;DHT22;13284;52.748;13.452;2023-09-19T00:04:09;18.00;99.90
25332;DHT22;13284;52.748;13.452;2023-09-19T00:06:36;18.00;99.90
25332;DHT22;13284;52.748;13.452;2023-09-19T00:09:02;18.00;99.90
25332;DHT22;13284;52.748;13.452;2023-09-19T00:11:28;18.00;99.90
25332;DHT22;13284;52.748;13.452;2023-09-19T00:13:54;18.00;99.90
25332;DHT22;13284;52.748;13.452;2023-09-19T00:16:20;17.90;99.90
25332;DHT22;13284;52.748;13.452;2023-09-19T00:18:46;17.90;99.90
25332;DHT22;13284;52.748;13.452;2023-09-19T00:21:12;17.90;99.90
25332;DHT22;13284;52.748;13.452;2023-09-19T00:23:38;17.90;99.90
25332;DHT22;13284;52.748;13.452;2023-09-19T00:26:06;17.90;99.90
25332;DHT22;13284;52.748;13.452;2023-09-19T00:28:32;17.90;99.90
25332;DHT22;13284;52.748;13.452;2023-09-19T00:30:57;17.90;99.90
25332;DHT22;13284;52.748;13.452;2023-09-19T00:33:27;17.80;99.90
25332;DHT22;13284;52.748;13.452;2023-09-19T00:35:55;17.80;99.90
25332;DHT22;13284;52.748;13.452;2023-09-19T00:38:22;17.80;99.90
25332;DHT22;13284;52.748;13.452;2023-09-19T00:40:53;17.80;99.90
25332;DHT22;13284;52.748;13.452;2023-09-19T00:43:19;17.80;99.90
25332;DHT22;13284;52.748;13.452;2023-09-19T00:45:49;17.80;99.90
25332;DHT22;13284;52.748;13.452;2023-09-19T00:48:16;17.80;99.90
25332;DHT22;13284;52.748;13.452;2023-09-19T00:50:43;17.80;99.90
25332;DHT22;13284;52.748;13.452;2023-09-19T00:53:10;17.80;99.90
25332;DHT22;13284;52.748;13.452;2023-09-19T00:55:38;17.80;99.90
25332;DHT22;13284;52.748;13.452;2023-09-19T00:58:04;17.70;99.90
25332;DHT22;13284;52.748;13.452;2023-09-19T01:00:33;17.70;99.90
25332;DHT22;13284;52.748;13.452;2023-09-19T01:03:00;17.80;99.90
25332;DHT22;13284;52.748;13.452;2023-09-19T01:05:29;17.70;99.90
25332;DHT22;13284;52.748;13.452;2023-09-19T01:07:55;17.70;99.90
25332;DHT22;13284;52.748;13.452;2023-09-19T01:10:21;17.70;99.90
25332;DHT22;13284;52.748;13.452;2023-09-19T01:16:07;17.60;99.90
25332;DHT22;13284;52.748;13.452;2023-09-19T01:21:39;17.60;99.90
25332;DHT22;13284;52.748;13.452;2023-09-19T01:24:46;17.60;99.90
25332;DHT22;13284;52.748;13.452;2023-09-19T01:29:49;17.70;99.90
25332;DHT22;13284;52.748;13.452;2023-09-19T01:32:17;17.70;99.90
25332;DHT22;13284;52.748;13.452;2023-09-19T01:34:55;17.70;99.90
25332;DHT22;13284;52.748;13.452;2023-09-19T01:37:24;17.70;99.90
25332;DHT22;13284;52.748;13.452;2023-09-19T01:40:02;17.70;99.90
25332;DHT22;13284;52.748;13.452;2023-09-19T01:43:12;17.80;99.90
25332;DHT22;13284;52.748;13.452;2023-09-19T01:46:04;17.80;99.90
25332;DHT22;13284;52.748;13.452;2023-09-19T01:51:11;17.80;99.90
25332;DHT22;13284;52.748;13.452;2023-09-19T01:54:00;17.70;99.90
25332;DHT22;13284;52.748;13.452;2023-09-19T01:56:32;17.70;99.90
25332;DHT22;13284;52.748;13.452;2023-09-19T01:59:06;17.70;99.90
25332;DHT22;13284;52.748;13.452;2023-09-19T02:01:33;17.70;99.90
25332;DHT22;13284;52.748;13.452;2023-09-19T02:04:00;17.60;99.90
25332;DHT22;13284;52.748;13.452;2023-09-19T02:06:26;17.60;99.90
25332;DHT22;13284;52.748;13.452;2023-09-19T02:08:53;17.60;99.90
25332;DHT22;13284;52.748;13.452;2023-09-19T02:11:19;17.50;99.90
25332;DHT22;13284;52.748;13.452;2023-09-19T02:13:44;17.50;99.90
25332;DHT22;13284;52.748;13.452;2023-09-19T02:16:10;17.40;99.90
25332;DHT22;13284;52.748;13.452;2023-09-19T02:18:36;17.40;99.90
25332;DHT22;13284;52.748;13.452;2023-09-19T02:21:02;17.30;99.90
25332;DHT22;13284;52.748;13.452;2023-09-19T02:23:29;17.30;99.90
25332;DHT22;13284;52.748;13.452;2023-09-19T02:25:56;17.30;99.90
25332;DHT22;13284;52.748;13.452;2023-09-19T02:28:26;17.30;99.90
25332;DHT22;13284;52.748;13.452;2023-09-19T02:31:01;17.20;99.90
25332;DHT22;13284;52.748;13.452;2023-09-19T02:33:27;17.20;99.90
25332;DHT22;13284;52.748;13.452;2023-09-19T02:35:56;17.20;99.90
25332;DHT22;13284;52.748;13.452;2023-09-19T02:38:23;17.20;99.90
25332;DHT22;13284;52.748;13.452;2023-09-19T02:40:50;17.20;99.90
25332;DHT22;13284;52.748;13.452;2023-09-19T02:43:15;17.10;99.90
25332;DHT22;13284;52.748;13.452;2023-09-19T02:45:42;17.10;99.90
25332;DHT22;13284;52.748;13.452;2023-09-19T02:48:08;17.10;99.90
25332;DHT22;13284;52.748;13.452;2023-09-19T02:50:33;17.00;99.90
25332;DHT22;13284;52.748;13.452;2023-09-19T02:52:59;17.00;99.90
25332;DHT22;13284;52.748;13.452;2023-09-19T02:55:25;17.00;99.90
25332;DHT22;13284;52.748;13.452;2023-09-19T02:57:52;17.00;99.90
25332;DHT22;13284;52.748;13.452;2023-09-19T03:00:19;16.90;99.90
25332;DHT22;13284;52.748;13.452;2023-09-19T03:02:49;16.90;99.90
25332;DHT22;13284;52.748;13.452;2023-09-19T03:05:15;16.90;99.90
25332;DHT22;13284;52.748;13.452;2023-09-19T03:07:41;16.90;99.90
25332;DHT22;13284;52.748;13.452;2023-09-19T03:10:09;16.90;99.90
25332;DHT22;13284;52.748;13.452;2023-09-19T03:12:35;16.80;99.90
25332;DHT22;13284;52.748;13.452;2023-09-19T03:15:01;16.80;99.90
25332;DHT22;13284;52.748;13.452;2023-09-19T03:17:26;16.70;99.90
25332;DHT22;13284;52.748;13.452;2023-09-19T03:19:53;16.80;99.90
25332;DHT22;13284;52.748;13.452;2023-09-19T03:22:19;16.70;99.90
25332;DHT22;13284;52.748;13.452;2023-09-19T03:24:45;16.70;99.90
25332;DHT22;13284;52.748;13.452;2023-09-19T03:27:12;16.60;99.90
25332;DHT22;13284;52.748;13.452;2023-09-19T03:29:39;16.70;99.90
25332;DHT22;13284;52.748;13.452;2023-09-19T03:32:05;16.60;99.90
25332;DHT22;13284;52.748;13.452;2023-09-19T03:34:31;16.60;99.90
25332;DHT22;13284;52.748;13.452;2023-09-19T03:36:56;16.70;99.90
25332;DHT22;13284;52.748;13.452;2023-09-19T03:39:22;16.60;99.90
25332;DHT22;13284;52.748;13.452;2023-09-19T03:41:48;16.60;99.90
25332;DHT22;13284;52.748;13.452;2023-09-19T03:44:13;16.50;99.90
25332;DHT22;13284;52.748;13.452;2023-09-19T03:46:39;16.50;99.90
25332;DHT22;13284;52.748;13.452;2023-09-19T03:49:04;16.40;99.90
25332;DHT22;13284;52.748;13.452;2023-09-19T03:51:30;16.50;99.90
25332;DHT22;13284;52.748;13.452;2023-09-19T03:53:55;16.50;99.90
25332;DHT22;13284;52.748;13.452;2023-09-19T03:56:21;16.50;99.90
25332;DHT22;13284;52.748;13.452;2023-09-19T03:58:47;16.50;99.90
25332;DHT22;13284;52.748;13.452;2023-09-19T04:01:12;16.50;99.90
25332;DHT22;13284;52.748;13.452;2023-09-19T04:03:38;16.50;99.90
25332;DHT22;13284;52.748;13.452;2023-09-19T04:06:14;16.60;99.90
25332;DHT22;13284;52.748;13.452;2023-09-19T04:08:40;16.60;99.90
25332;DHT22;13284;52.748;13.452;2023-09-19T04:11:06;16.60;99.90
25332;DHT22;13284;52.748;13.452;2023-09-19T04:13:31;16.50;99.90
25332;DHT22;13284;52.748;13.452;2023-09-19T04:15:57;16.60;99.90
25332;DHT22;13284;52.748;13.452;2023-09-19T04:18:22;16.60;99.90
25332;DHT22;13284;52.748;13.452;2023-09-19T04:20:51;16.60;99.90
25332;DHT22;13284;52.748;13.452;2023-09-19T04:23:16;16.60;99.90
25332;DHT22;13284;52.748;13.452;2023-09-19T04:25:43;16.60;99.90
25332;DHT22;13284;52.748;13.452;2023-09-19T04:28:08;16.60;99.90
25332;DHT22;13284;52.748;13.452;2023-09-19T04:30:36;16.60;99.90
25332;DHT22;13284;52.748;13.452;2023-09-19T04:33:02;16.50;99.90
25332;DHT22;13284;52.748;13.452;2023-09-19T04:35:28;16.50;99.90
25332;DHT22;13284;52.748;13.452;2023-09-19T04:37:56;16.40;99.90
25332;DHT22;13284;52.748;13.452;2023-09-19T04:40:22;16.40;99.90
25332;DHT22;13284;52.748;13.452;2023-09-19T04:42:56;16.50;99.90
25332;DHT22;13284;52.748;13.452;2023-09-19T04:45:25;16.40;99.90
25332;DHT22;13284;52.748;13.452;2023-09-19T04:47:51;16.40;99.90
25332;DHT22;13284;52.748;13.452;2023-09-19T04:50:17;16.40;99.90
25332;DHT22;13284;52.748;13.452;2023-09-19T04:52:44;16.50;99.90
25332;DHT22;13284;52.748;13.452;2023-09-19T04:55:14;16.40;99.90
25332;DHT22;13284;52.748;13.452;2023-09-19T04:57:50;16.50;99.90
25332;DHT22;13284;52.748;13.452;2023-09-19T05:00:17;16.40;99.90
25332;DHT22;13284;52.748;13.452;2023-09-19T05:02:45;16.40;99.90
25332;DHT22;13284;52.748;13.452;2023-09-19T05:05:11;16.40;99.90
25332;DHT22;13284;52.748;13.452;2023-09-19T05:07:39;16.40;99.90
25332;DHT22;13284;52.748;13.452;2023-09-19T05:10:05;16.40;99.90
25332;DHT22;13284;52.748;13.452;2023-09-19T05:12:33;16.30;99.90
25332;DHT22;13284;52.748;13.452;2023-09-19T05:14:59;16.30;99.90
25332;DHT22;13284;52.748;13.452;2023-09-19T05:17:24;16.30;99.90
25332;DHT22;13284;52.748;13.452;2023-09-19T05:19:50;16.30;99.90
25332;DHT22;13284;52.748;13.452;2023-09-19T05:22:18;16.30;99.90
25332;DHT22;13284;52.748;13.452;2023-09-19T05:24:44;16.20;99.90
25332;DHT22;13284;52.748;13.452;2023-09-19T05:27:14;16.30;99.90
25332;DHT22;13284;52.748;13.452;2023-09-19T05:29:44;16.20;99.90
25332;DHT22;13284;52.748;13.452;2023-09-19T05:32:11;16.20;99.90
25332;DHT22;13284;52.748;13.452;2023-09-19T05:34:36;16.10;99.90
25332;DHT22;13284;52.748;13.452;2023-09-19T05:37:02;16.20;99.90
25332;DHT22;13284;52.748;13.452;2023-09-19T05:39:28;16.10;99.90
25332;DHT22;13284;52.748;13.452;2023-09-19T05:41:53;16.10;99.90
25332;DHT22;13284;52.748;13.452;2023-09-19T05:44:19;16.10;99.90
25332;DHT22;13284;52.748;13.452;2023-09-19T05:46:44;16.10;99.90
25332;DHT22;13284;52.748;13.452;2023-09-19T05:49:13;16.10;99.90
25332;DHT22;13284;52.748;13.452;2023-09-19T05:51:48;16.10;99.90
25332;DHT22;13284;52.748;13.452;2023-09-19T05:54:14;16.10;99.90
25332;DHT22;13284;52.748;13.452;2023-09-19T05:56:42;16.20;99.90
25332;DHT22;13284;52.748;13.452;2023-09-19T05:59:08;16.10;99.90
25332;DHT22;13284;52.748;13.452;2023-09-19T06:01:37;16.10;99.90
25332;DHT22;13284;52.748;13.452;2023-09-19T06:04:05;16.10;99.90
25332;DHT22;13284;52.748;13.452;2023-09-19T06:06:30;16.20;99.90
25332;DHT22;13284;52.748;13.452;2023-09-19T06:08:56;16.30;99.90
25332;DHT22;13284;52.748;13.452;2023-09-19T06:11:23;16.30;99.90
25332;DHT22;13284;52.748;13.452;2023-09-19T06:13:51;16.30;99.90
25332;DHT22;13284;52.748;13.452;2023-09-19T06:16:18;16.30;99.90
25332;DHT22;13284;52.748;13.452;2023-09-19T06:18:45;16.40;99.90
25332;DHT22;13284;52.748;13.452;2023-09-19T06:21:10;16.40;99.90
25332;DHT22;13284;52.748;13.452;2023-09-19T06:23:36;16.50;99.90
25332;DHT22;13284;52.748;13.452;2023-09-19T06:26:02;16.50;99.90
25332;DHT22;13284;52.748;13.452;2023-09-19T06:28:28;16.60;99.90
25332;DHT22;13284;52.748;13.452;2023-09-19T06:30:54;16.60;99.90
25332;DHT22;13284;52.748;13.452;2023-09-19T06:33:20;16.60;99.90
25332;DHT22;13284;52.748;13.452;2023-09-19T06:35:52;16.70;99.90
25332;DHT22;13284;52.748;13.452;2023-09-19T06:38:24;16.80;99.90
25332;DHT22;13284;52.748;13.452;2023-09-19T06:40:53;16.90;99.90
25332;DHT22;13284;52.748;13.452;2023-09-19T06:43:18;17.00;99.90
25332;DHT22;13284;52.748;13.452;2023-09-19T06:45:45;17.10;99.90
25332;DHT22;13284;52.748;13.452;2023-09-19T06:48:11;17.30;99.90
25332;DHT22;13284;52.748;13.452;2023-09-19T06:50:44;17.30;99.90
25332;DHT22;13284;52.748;13.452;2023-09-19T06:53:16;17.50;99.90
25332;DHT22;13284;52.748;13.452;2023-09-19T06:55:42;17.60;99.90
25332;DHT22;13284;52.748;13.452;2023-09-19T06:58:09;17.70;99.90
25332;DHT22;13284;52.748;13.452;2023-09-19T07:00:36;17.80;99.90
25332;DHT22;13284;52.748;13.452;2023-09-19T07:03:05;17.90;99.90
25332;DHT22;13284;52.748;13.452;2023-09-19T07:05:34;17.90;99.90
25332;DHT22;13284;52.748;13.452;2023-09-19T07:08:02;18.10;99.90
25332;DHT22;13284;52.748;13.452;2023-09-19T07:10:29;18.20;99.90
25332;DHT22;13284;52.748;13.452;2023-09-19T07:15:24;18.10;99.90
25332;DHT22;13284;52.748;13.452;2023-09-19T07:17:51;18.10;99.90
25332;DHT22;13284;52.748;13.452;2023-09-19T07:20:18;18.20;99.90
25332;DHT22;13284;52.748;13.452;2023-09-19T07:22:44;18.20;99.90
25332;DHT22;13284;52.748;13.452;2023-09-19T07:25:09;18.10;99.90
25332;DHT22;13284;52.748;13.452;2023-09-19T07:27:35;18.10;99.90
25332;DHT22;13284;52.748;13.452;2023-09-19T07:30:00;18.00;99.90
25332;DHT22;13284;52.748;13.452;2023-09-19T07:32:26;18.00;99.90
25332;DHT22;13284;52.748;13.452;2023-09-19T07:34:51;18.00;99.90
25332;DHT22;13284;52.748;13.452;2023-09-19T07:37:17;18.00;99.90
25332;DHT22;13284;52.748;13.452;2023-09-19T07:39:42;18.00;99.90
25332;DHT22;13284;52.748;13.452;2023-09-19T07:42:10;18.00;99.90
25332;DHT22;13284;52.748;13.452;2023-09-19T07:44:37;17.90;99.90
25332;DHT22;13284;52.748;13.452;2023-09-19T07:47:02;18.00;99.90
25332;DHT22;13284;52.748;13.452;2023-09-19T07:49:28;17.90;99.90
25332;DHT22;13284;52.748;13.452;2023-09-19T07:51:54;18.00;99.90
25332;DHT22;13284;52.748;13.452;2023-09-19T07:54:22;17.90;99.90
25332;DHT22;13284;52.748;13.452;2023-09-19T07:56:48;18.00;99.90
25332;DHT22;13284;52.748;13.452;2023-09-19T07:59:13;18.00;99.90
25332;DHT22;13284;52.748;13.452;2023-09-19T08:01:39;18.10;99.90
25332;DHT22;13284;52.748;13.452;2023-09-19T08:04:11;18.30;99.90
25332;DHT22;13284;52.748;13.452;2023-09-19T08:06:36;18.50;99.90
25332;DHT22;13284;52.748;13.452;2023-09-19T08:09:04;18.40;99.90
25332;DHT22;13284;52.748;13.452;2023-09-19T08:11:33;18.40;99.90
25332;DHT22;13284;52.748;13.452;2023-09-19T08:13:59;18.40;99.90
25332;DHT22;13284;52.748;13.452;2023-09-19T08:16:31;18.30;99.90
25332;DHT22;13284;52.748;13.452;2023-09-19T08:18:57;18.30;99.90
25332;DHT22;13284;52.748;13.452;2023-09-19T08:21:23;18.20;99.90
25332;DHT22;13284;52.748;13.452;2023-09-19T08:23:50;17.90;99.90
25332;DHT22;13284;52.748;13.452;2023-09-19T08:26:15;17.80;99.90
25332;DHT22;13284;52.748;13.452;2023-09-19T08:28:41;17.80;99.90
25332;DHT22;13284;52.748;13.452;2023-09-19T08:31:07;17.80;99.90
25332;DHT22;13284;52.748;13.452;2023-09-19T08:33:35;17.80;99.90
25332;DHT22;13284;52.748;13.452;2023-09-19T08:36:01;17.80;99.90
25332;DHT22;13284;52.748;13.452;2023-09-19T08:38:27;17.90;99.90
25332;DHT22;13284;52.748;13.452;2023-09-19T08:40:57;18.00;99.90
25332;DHT22;13284;52.748;13.452;2023-09-19T08:43:26;18.10;99.90
25332;DHT22;13284;52.748;13.452;2023-09-19T08:46:11;18.20;99.90
25332;DHT22;13284;52.748;13.452;2023-09-19T08:48:46;18.60;99.90
25332;DHT22;13284;52.748;13.452;2023-09-19T08:51:19;18.80;99.90
25332;DHT22;13284;52.748;13.452;2023-09-19T08:54:02;18.90;99.90
25332;DHT22;13284;52.748;13.452;2023-09-19T08:56:29;19.00;99.90
25332;DHT22;13284;52.748;13.452;2023-09-19T08:58:59;19.10;99.90
25332;DHT22;13284;52.748;13.452;2023-09-19T09:01:34;19.30;99.90
25332;DHT22;13284;52.748;13.452;2023-09-19T09:04:02;19.60;99.90
25332;DHT22;13284;52.748;13.452;2023-09-19T09:06:28;19.30;99.90
25332;DHT22;13284;52.748;13.452;2023-09-19T09:08:54;19.20;99.90
25332;DHT22;13284;52.748;13.452;2023-09-19T09:11:20;19.50;99.90
25332;DHT22;13284;52.748;13.452;2023-09-19T09:13:46;19.60;99.90
25332;DHT22;13284;52.748;13.452;2023-09-19T09:16:13;19.40;99.90
25332;DHT22;13284;52.748;13.452;2023-09-19T09:18:39;19.50;99.90
25332;DHT22;13284;52.748;13.452;2023-09-19T09:21:05;19.40;99.90
25332;DHT22;13284;52.748;13.452;2023-09-19T09:23:31;20.10;99.90
25332;DHT22;13284;52.748;13.452;2023-09-19T09:25:58;20.10;99.90
25332;DHT22;13284;52.748;13.452;2023-09-19T09:28:29;19.60;99.90
25332;DHT22;13284;52.748;13.452;2023-09-19T09:31:05;20.30;99.90
25332;DHT22;13284;52.748;13.452;2023-09-19T09:33:35;20.40;99.90
25332;DHT22;13284;52.748;13.452;2023-09-19T09:36:02;20.10;99.90
25332;DHT22;13284;52.748;13.452;2023-09-19T09:38:44;20.30;99.90
25332;DHT22;13284;52.748;13.452;2023-09-19T09:41:10;20.50;99.90
25332;DHT22;13284;52.748;13.452;2023-09-19T09:43:41;20.70;99.90
25332;DHT22;13284;52.748;13.452;2023-09-19T09:46:14;21.00;99.90
25332;DHT22;13284;52.748;13.452;2023-09-19T09:49:00;21.30;99.90
25332;DHT22;13284;52.748;13.452;2023-09-19T09:52:04;21.30;99.90
25332;DHT22;13284;52.748;13.452;2023-09-19T09:54:59;21.10;99.90
25332;DHT22;13284;52.748;13.452;2023-09-19T09:57:30;21.10;99.90
25332;DHT22;13284;52.748;13.452;2023-09-19T10:00:00;20.50;99.90
25332;DHT22;13284;52.748;13.452;2023-09-19T10:02:38;20.50;99.90
25332;DHT22;13284;52.748;13.452;2023-09-19T10:05:24;20.10;99.90
25332;DHT22;13284;52.748;13.452;2023-09-19T10:07:53;20.40;99.90
25332;DHT22;13284;52.748;13.452;2023-09-19T10:10:39;20.40;99.90
25332;DHT22;13284;52.748;13.452;2023-09-19T10:13:06;20.60;99.90
25332;DHT22;13284;52.748;13.452;2023-09-19T10:15:33;20.50;99.90
25332;DHT22;13284;52.748;13.452;2023-09-19T10:18:04;20.40;99.90
25332;DHT22;13284;52.748;13.452;2023-09-19T10:20:31;20.80;99.90
25332;DHT22;13284;52.748;13.452;2023-09-19T10:23:03;20.60;99.90
25332;DHT22;13284;52.748;13.452;2023-09-19T10:25:37;20.90;99.90
25332;DHT22;13284;52.748;13.452;2023-09-19T10:28:03;20.90;99.90
25332;DHT22;13284;52.748;13.452;2023-09-19T10:30:32;20.40;99.90
25332;DHT22;13284;52.748;13.452;2023-09-19T10:33:03;19.80;99.90
25332;DHT22;13284;52.748;13.452;2023-09-19T10:35:32;20.20;99.90
25332;DHT22;13284;52.748;13.452;2023-09-19T10:38:01;20.50;99.90
25332;DHT22;13284;52.748;13.452;2023-09-19T10:40:29;21.00;99.90
25332;DHT22;13284;52.748;13.452;2023-09-19T10:43:05;20.90;99.90
25332;DHT22;13284;52.748;13.452;2023-09-19T10:45:33;20.90;99.90
25332;DHT22;13284;52.748;13.452;2023-09-19T10:47:59;21.50;99.90
25332;DHT22;13284;52.748;13.452;2023-09-19T10:50:28;21.30;99.90
25332;DHT22;13284;52.748;13.452;2023-09-19T10:53:00;20.90;99.90
25332;DHT22;13284;52.748;13.452;2023-09-19T10:55:36;20.50;99.90
25332;DHT22;13284;52.748;13.452;2023-09-19T10:58:02;20.20;99.90
25332;DHT22;13284;52.748;13.452;2023-09-19T11:00:57;20.00;99.90
25332;DHT22;13284;52.748;13.452;2023-09-19T11:03:32;20.30;99.90
25332;DHT22;13284;52.748;13.452;2023-09-19T11:06:06;21.40;99.90
25332;DHT22;13284;52.748;13.452;2023-09-19T11:08:55;22.10;99.90
25332;DHT22;13284;52.748;13.452;2023-09-19T11:11:40;22.60;99.90
25332;DHT22;13284;52.748;13.452;2023-09-19T11:30:44;21.50;99.90
25332;DHT22;13284;52.748;13.452;2023-09-19T11:33:24;21.50;99.90
25332;DHT22;13284;52.748;13.452;2023-09-19T11:36:07;21.20;99.90
25332;DHT22;13284;52.748;13.452;2023-09-19T11:49:18;22.00;99.90
25332;DHT22;13284;52.748;13.452;2023-09-19T11:51:50;21.80;99.90
25332;DHT22;13284;52.748;13.452;2023-09-19T11:54:17;21.80;99.90
25332;DHT22;13284;52.748;13.452;2023-09-19T11:56:56;21.80;99.90
25332;DHT22;13284;52.748;13.452;2023-09-19T11:59:27;21.90;99.90
25332;DHT22;13284;52.748;13.452;2023-09-19T12:02:04;21.60;99.90
25332;DHT22;13284;52.748;13.452;2023-09-19T12:07:14;21.60;99.90
25332;DHT22;13284;52.748;13.452;2023-09-19T12:09:46;21.40;99.90
25332;DHT22;13284;52.748;13.452;2023-09-19T12:12:25;20.60;99.90
25332;DHT22;13284;52.748;13.452;2023-09-19T12:15:01;20.40;99.90
25332;DHT22;13284;52.748;13.452;2023-09-19T12:17:39;20.20;99.90
25332;DHT22;13284;52.748;13.452;2023-09-19T12:20:07;20.60;99.90
25332;DHT22;13284;52.748;13.452;2023-09-19T12:22:43;20.90;99.90
25332;DHT22;13284;52.748;13.452;2023-09-19T12:25:09;21.00;99.90
25332;DHT22;13284;52.748;13.452;2023-09-19T12:27:49;21.20;99.90
25332;DHT22;13284;52.748;13.452;2023-09-19T12:30:18;20.90;99.90
25332;DHT22;13284;52.748;13.452;2023-09-19T12:32:46;20.90;99.90
25332;DHT22;13284;52.748;13.452;2023-09-19T12:35:31;21.10;99.90
25332;DHT22;13284;52.748;13.452;2023-09-19T12:38:01;20.90;99.90
25332;DHT22;13284;52.748;13.452;2023-09-19T12:40:26;20.70;99.90
25332;DHT22;13284;52.748;13.452;2023-09-19T12:42:55;20.60;99.90
25332;DHT22;13284;52.748;13.452;2023-09-19T12:45:21;20.60;99.90
25332;DHT22;13284;52.748;13.452;2023-09-19T12:51:05;20.60;99.90
25332;DHT22;13284;52.748;13.452;2023-09-19T12:53:37;20.50;99.90
25332;DHT22;13284;52.748;13.452;2023-09-19T12:56:08;20.70;99.90
25332;DHT22;13284;52.748;13.452;2023-09-19T13:01:19;20.60;99.90
25332;DHT22;13284;52.748;13.452;2023-09-19T13:03:45;20.30;99.90
25332;DHT22;13284;52.748;13.452;2023-09-19T13:06:57;20.30;99.90
25332;DHT22;13284;52.748;13.452;2023-09-19T13:09:23;20.40;99.90
25332;DHT22;13284;52.748;13.452;2023-09-19T13:12:04;20.30;99.90
25332;DHT22;13284;52.748;13.452;2023-09-19T13:14:32;20.30;99.90
25332;DHT22;13284;52.748;13.452;2023-09-19T13:17:04;20.30;99.90
25332;DHT22;13284;52.748;13.452;2023-09-19T13:19:47;20.30;99.90
25332;DHT22;13284;52.748;13.452;2023-09-19T13:22:39;20.30;99.90
25332;DHT22;13284;52.748;13.452;2023-09-19T13:25:08;20.30;99.90
25332;DHT22;13284;52.748;13.452;2023-09-19T13:27:39;20.40;99.90
25332;DHT22;13284;52.748;13.452;2023-09-19T13:30:05;20.40;99.90
25332;DHT22;13284;52.748;13.452;2023-09-19T13:32:32;20.40;99.90
25332;DHT22;13284;52.748;13.452;2023-09-19T13:34:58;20.10;99.90
25332;DHT22;13284;52.748;13.452;2023-09-19T13:37:24;20.10;99.90
25332;DHT22;13284;52.748;13.452;2023-09-19T13:39:49;20.00;99.90
25332;DHT22;13284;52.748;13.452;2023-09-19T13:42:15;19.90;99.90
25332;DHT22;13284;52.748;13.452;2023-09-19T13:44:41;19.80;99.90
25332;DHT22;13284;52.748;13.452;2023-09-19T13:47:07;19.90;99.90
25332;DHT22;13284;52.748;13.452;2023-09-19T13:49:36;19.90;99.90
25332;DHT22;13284;52.748;13.452;2023-09-19T13:52:02;19.90;99.90
25332;DHT22;13284;52.748;13.452;2023-09-19T13:54:31;20.00;99.90
25332;DHT22;13284;52.748;13.452;2023-09-19T13:56:57;19.80;99.90
25332;DHT22;13284;52.748;13.452;2023-09-19T13:59:23;19.80;99.90
25332;DHT22;13284;52.748;13.452;2023-09-19T14:01:49;19.70;99.90
25332;DHT22;13284;52.748;13.452;2023-09-19T14:04:16;19.70;99.90
25332;DHT22;13284;52.748;13.452;2023-09-19T14:06:42;19.70;99.90
25332;DHT22;13284;52.748;13.452;2023-09-19T14:09:08;19.70;99.90
25332;DHT22;13284;52.748;13.452;2023-09-19T14:11:35;19.70;99.90
25332;DHT22;13284;52.748;13.452;2023-09-19T14:14:01;19.60;99.90
25332;DHT22;13284;52.748;13.452;2023-09-19T14:16:26;19.70;99.90
25332;DHT22;13284;52.748;13.452;2023-09-19T14:18:55;19.70;99.90
25332;DHT22;13284;52.748;13.452;2023-09-19T14:21:23;19.70;99.90
25332;DHT22;13284;52.748;13.452;2023-09-19T14:23:49;19.60;99.90
25332;DHT22;13284;52.748;13.452;2023-09-19T14:26:15;19.60;99.90
25332;DHT22;13284;52.748;13.452;2023-09-19T14:28:42;19.70;99.90
25332;DHT22;13284;52.748;13.452;2023-09-19T14:31:08;19.80;99.90
25332;DHT22;13284;52.748;13.452;2023-09-19T14:33:34;19.80;99.90
25332;DHT22;13284;52.748;13.452;2023-09-19T14:36:08;19.70;99.90
25332;DHT22;13284;52.748;13.452;2023-09-19T14:38:35;19.70;99.90
25332;DHT22;13284;52.748;13.452;2023-09-19T14:41:02;19.80;99.90
25332;DHT22;13284;52.748;13.452;2023-09-19T14:43:29;19.80;99.90
25332;DHT22;13284;52.748;13.452;2023-09-19T14:46:03;19.80;99.90
25332;DHT22;13284;52.748;13.452;2023-09-19T14:48:29;19.80;99.90
25332;DHT22;13284;52.748;13.452;2023-09-19T14:50:54;19.70;99.90
25332;DHT22;13284;52.748;13.452;2023-09-19T14:53:21;19.70;99.90
25332;DHT22;13284;52.748;13.452;2023-09-19T14:55:46;19.80;99.90
25332;DHT22;13284;52.748;13.452;2023-09-19T14:58:13;19.80;99.90
25332;DHT22;13284;52.748;13.452;2023-09-19T15:00:39;19.80;99.90
25332;DHT22;13284;52.748;13.452;2023-09-19T15:03:05;19.70;99.90
25332;DHT22;13284;52.748;13.452;2023-09-19T15:05:31;19.70;99.90
25332;DHT22;13284;52.748;13.452;2023-09-19T15:07:56;19.70;99.90
25332;DHT22;13284;52.748;13.452;2023-09-19T15:10:23;19.70;99.90
25332;DHT22;13284;52.748;13.452;2023-09-19T15:12:48;19.70;99.90
25332;DHT22;13284;52.748;13.452;2023-09-19T15:15:14;19.70;99.90
25332;DHT22;13284;52.748;13.452;2023-09-19T15:17:39;19.70;99.90
25332;DHT22;13284;52.748;13.452;2023-09-19T15:20:06;19.80;99.90
25332;DHT22;13284;52.748;13.452;2023-09-19T15:22:36;19.80;99.90
25332;DHT22;13284;52.748;13.452;2023-09-19T15:25:02;19.80;99.90
25332;DHT22;13284;52.748;13.452;2023-09-19T15:27:31;19.80;99.90
25332;DHT22;13284;52.748;13.452;2023-09-19T15:30:00;19.80;99.90
25332;DHT22;13284;52.748;13.452;2023-09-19T15:32:28;19.90;99.90
25332;DHT22;13284;52.748;13.452;2023-09-19T15:34:53;19.90;99.90
25332;DHT22;13284;52.748;13.452;2023-09-19T15:37:19;19.80;99.90
25332;DHT22;13284;52.748;13.452;2023-09-19T15:39:45;19.80;99.90
25332;DHT22;13284;52.748;13.452;2023-09-19T15:42:11;19.70;99.90
25332;DHT22;13284;52.748;13.452;2023-09-19T15:44:37;19.70;99.90
25332;DHT22;13284;52.748;13.452;2023-09-19T15:47:06;19.70;99.90
25332;DHT22;13284;52.748;13.452;2023-09-19T15:49:31;19.70;99.90
25332;DHT22;13284;52.748;13.452;2023-09-19T15:51:57;19.70;99.90
25332;DHT22;13284;52.748;13.452;2023-09-19T15:54:25;19.60;99.90
25332;DHT22;13284;52.748;13.452;2023-09-19T15:56:51;19.60;99.90
25332;DHT22;13284;52.748;13.452;2023-09-19T15:59:17;19.50;99.90
25332;DHT22;13284;52.748;13.452;2023-09-19T16:01:44;19.50;99.90
25332;DHT22;13284;52.748;13.452;2023-09-19T16:04:10;19.50;99.90
25332;DHT22;13284;52.748;13.452;2023-09-19T16:06:38;19.50;99.90
25332;DHT22;13284;52.748;13.452;2023-09-19T16:09:04;19.50;99.90
25332;DHT22;13284;52.748;13.452;2023-09-19T16:11:34;19.40;99.90
25332;DHT22;13284;52.748;13.452;2023-09-19T16:14:00;19.40;99.90
25332;DHT22;13284;52.748;13.452;2023-09-19T16:16:27;19.30;99.90